Time;durP1;ratioP1;P1;durP2;ratioP2;P2;SDS_P1;SDS_P2;PMS_P1;PMS_P2;Temp;Humidity;BMP_temperature;BMP_pressure;BME280_temperature;BME280_humidity;BME280_pressure;Samples;Min_cycle;Max_cycle;Signal;HPM_P1;HPM_P2
2022/09/14 00:01:51;;;;;;;3.13;1.45;;;12.40;99.90;;;;;;5081807;28;20100;-60
2022/09/14 00:04:19;;;;;;;3.88;1.40;;;12.40;99.90;;;;;;5075978;28;20051;-60
2022/09/14 00:06:46;;;;;;;6.72;1.70;;;12.30;99.90;;;;;;5076886;28;20086;-61
2022/09/14 00:09:22;;;;;;;4.55;1.58;;;12.30;99.90;;;;;;5088254;28;20043;-59
2022/09/14 00:11:48;;;;;;;7.78;1.98;;;12.30;99.90;;;;;;5085169;28;20123;-60
2022/09/14 00:14:14;;;;;;;5.40;1.40;;;12.20;99.90;;;;;;5088377;28;20134;-60
2022/09/14 00:16:41;;;;;;;6.82;1.92;;;12.10;99.90;;;;;;5083792;28;20044;-60
2022/09/14 00:19:34;;;;;;;3.33;1.60;;;12.10;99.90;;;;;;5081279;28;20054;-60
2022/09/14 00:21:59;;;;;;;7.65;1.90;;;12.00;99.90;;;;;;5078628;28;20445;-60
2022/09/14 00:24:29;;;;;;;8.73;2.15;;;12.10;99.90;;;;;;5085652;28;20050;-60
2022/09/14 00:26:55;;;;;;;7.60;2.40;;;12.20;99.90;;;;;;5086847;28;20048;-60
2022/09/14 00:29:20;;;;;;;5.15;1.80;;;12.30;99.90;;;;;;5083270;28;20085;-60
2022/09/14 00:31:46;;;;;;;4.35;1.60;;;12.30;99.90;;;;;;5083681;28;20036;-60
2022/09/14 00:34:14;;;;;;;6.68;2.03;;;12.30;99.90;;;;;;5077857;28;20059;-60
2022/09/14 00:36:43;;;;;;;7.25;1.83;;;12.30;99.90;;;;;;5086403;28;20391;-61
2022/09/14 00:39:10;;;;;;;3.53;1.80;;;12.20;99.90;;;;;;5080717;28;20119;-60
2022/09/14 00:41:39;;;;;;;6.15;1.98;;;12.20;99.90;;;;;;5079946;28;20363;-60
2022/09/14 00:44:09;;;;;;;4.90;1.70;;;12.10;99.90;;;;;;5079352;28;20051;-59
2022/09/14 00:46:47;;;;;;;5.20;1.85;;;12.20;99.90;;;;;;5076442;28;20747;-61
2022/09/14 00:49:22;;;;;;;5.10;2.08;;;12.20;99.90;;;;;;5086934;28;20036;-61
2022/09/14 00:51:56;;;;;;;4.32;2.03;;;12.20;99.90;;;;;;5073459;28;20036;-61
2022/09/14 00:54:21;;;;;;;3.42;1.90;;;12.20;99.90;;;;;;5085057;28;20043;-60
2022/09/14 00:56:48;;;;;;;5.35;2.20;;;12.30;99.90;;;;;;5084392;28;20126;-60
2022/09/14 00:59:22;;;;;;;3.67;2.00;;;12.30;99.90;;;;;;5077347;28;20423;-60
2022/09/14 01:01:49;;;;;;;2.95;1.65;;;12.30;99.90;;;;;;5083207;28;20036;-60
2022/09/14 01:04:14;;;;;;;5.25;2.25;;;12.30;99.90;;;;;;5087170;28;20054;-60
2022/09/14 01:07:05;;;;;;;4.35;2.03;;;12.40;99.90;;;;;;5083048;28;20367;-60
2022/09/14 01:09:33;;;;;;;3.58;2.22;;;12.30;99.90;;;;;;5086315;28;20379;-60
2022/09/14 01:12:28;;;;;;;7.32;2.03;;;12.30;99.90;;;;;;5081823;28;20035;-60
2022/09/14 01:15:05;;;;;;;3.97;2.00;;;12.20;99.90;;;;;;5081125;28;20050;-60
2022/09/14 01:17:59;;;;;;;6.18;2.03;;;12.30;99.90;;;;;;5082250;28;20064;-60
2022/09/14 01:20:38;;;;;;;5.45;1.85;;;12.20;99.90;;;;;;5061557;28;20486;-60
2022/09/14 01:23:08;;;;;;;7.63;2.10;;;12.20;99.90;;;;;;5083939;28;20047;-60
2022/09/14 01:26:00;;;;;;;4.35;2.13;;;12.20;99.90;;;;;;5083011;28;20052;-61
2022/09/14 01:28:48;;;;;;;4.43;1.70;;;12.20;99.90;;;;;;5079194;28;20044;-60
2022/09/14 01:31:20;;;;;;;3.05;2.13;;;12.20;99.90;;;;;;5076871;28;20036;-60
2022/09/14 01:34:01;;;;;;;4.78;2.00;;;12.20;99.90;;;;;;5080249;28;20119;-60
2022/09/14 01:36:30;;;;;;;4.32;2.15;;;12.20;99.90;;;;;;5084679;28;20070;-60
2022/09/14 01:38:56;;;;;;;2.60;1.85;;;12.20;99.90;;;;;;5078794;28;20079;-60
2022/09/14 01:41:25;;;;;;;3.53;2.08;;;12.20;99.90;;;;;;5078645;28;20036;-60
2022/09/14 01:43:56;;;;;;;4.22;2.00;;;12.20;99.90;;;;;;5082601;28;20449;-61
2022/09/14 01:46:33;;;;;;;5.50;2.30;;;12.30;99.90;;;;;;5085061;28;20032;-60
2022/09/14 01:49:13;;;;;;;3.92;1.95;;;12.20;99.90;;;;;;5070270;28;20052;-61
2022/09/14 01:51:46;;;;;;;7.25;2.72;;;12.20;99.90;;;;;;5078215;28;20032;-60
2022/09/14 01:54:15;;;;;;;4.35;2.22;;;12.20;99.90;;;;;;5073781;28;20524;-60
2022/09/14 01:57:03;;;;;;;4.95;2.30;;;12.20;99.90;;;;;;5083162;28;20064;-59
2022/09/14 01:59:34;;;;;;;4.10;2.25;;;12.30;99.90;;;;;;5083160;28;20055;-60
2022/09/14 02:02:27;;;;;;;5.07;2.45;;;12.30;99.90;;;;;;5079713;28;20545;-60
2022/09/14 02:05:15;;;;;;;4.70;2.30;;;12.30;99.90;;;;;;5086209;28;20483;-60
2022/09/14 02:07:41;;;;;;;5.30;2.38;;;12.20;99.90;;;;;;5080117;28;20062;-60
2022/09/14 02:10:10;;;;;;;6.65;2.25;;;12.20;99.90;;;;;;5089816;28;20103;-61
2022/09/14 02:12:37;;;;;;;5.93;2.50;;;12.20;99.90;;;;;;5083033;28;20574;-61
2022/09/14 02:15:05;;;;;;;3.97;2.33;;;12.20;99.90;;;;;;5083852;28;20131;-61
2022/09/14 02:17:31;;;;;;;5.43;2.40;;;12.20;99.90;;;;;;5082774;28;20066;-59
2022/09/14 02:20:00;;;;;;;6.13;2.47;;;12.20;99.90;;;;;;5089046;28;20111;-61
2022/09/14 02:22:27;;;;;;;2.95;2.15;;;12.10;99.90;;;;;;5085970;28;20047;-60
2022/09/14 02:24:54;;;;;;;6.05;2.28;;;12.20;99.90;;;;;;5084220;28;20085;-60
2022/09/14 02:27:20;;;;;;;6.70;2.58;;;12.10;99.90;;;;;;5091478;28;20819;-60
2022/09/14 02:29:46;;;;;;;6.55;2.40;;;12.10;99.90;;;;;;5082568;28;20075;-59
2022/09/14 02:32:42;;;;;;;3.70;2.38;;;12.10;99.90;;;;;;5085326;28;20043;-61
2022/09/14 02:35:25;;;;;;;4.75;2.70;;;12.20;99.90;;;;;;5084384;28;20044;-60
2022/09/14 02:38:07;;;;;;;4.20;2.33;;;12.30;99.90;;;;;;5088293;28;20051;-60
2022/09/14 02:40:40;;;;;;;6.25;2.60;;;12.30;99.90;;;;;;5083977;28;20118;-61
2022/09/14 02:43:17;;;;;;;5.40;2.60;;;12.30;99.90;;;;;;5083340;28;20447;-61
2022/09/14 02:46:15;;;;;;;7.18;2.72;;;12.40;99.90;;;;;;5082352;28;20383;-60
2022/09/14 02:48:47;;;;;;;5.68;2.85;;;12.40;99.90;;;;;;5084104;28;20086;-61
2022/09/14 02:51:37;;;;;;;6.35;2.30;;;12.40;99.90;;;;;;5084197;28;20387;-61
2022/09/14 02:54:42;;;;;;;3.10;2.20;;;12.50;99.90;;;;;;5086494;28;20040;-61
2022/09/14 02:57:07;;;;;;;8.80;2.45;;;12.50;99.90;;;;;;5045390;28;20050;-60
2022/09/14 02:59:33;;;;;;;4.78;2.42;;;12.50;99.90;;;;;;5076036;28;20056;-60
2022/09/14 03:02:00;;;;;;;4.32;2.58;;;12.50;99.90;;;;;;5085785;28;20037;-59
2022/09/14 03:04:26;;;;;;;7.82;2.80;;;12.60;99.90;;;;;;5082075;28;20044;-60
2022/09/14 03:06:51;;;;;;;10.73;2.63;;;12.60;99.90;;;;;;5080979;28;20051;-60
2022/09/14 03:09:17;;;;;;;6.85;2.72;;;12.60;99.90;;;;;;5080296;28;20032;-60
2022/09/14 03:11:43;;;;;;;5.60;2.53;;;12.70;99.90;;;;;;5088820;28;20035;-60
2022/09/14 03:14:10;;;;;;;7.80;2.50;;;12.70;99.90;;;;;;5085682;28;20036;-60
2022/09/14 03:16:36;;;;;;;6.72;2.70;;;12.70;99.90;;;;;;5089565;28;20059;-60
2022/09/14 03:19:03;;;;;;;5.43;1.92;;;12.70;99.90;;;;;;5085893;28;20101;-61
2022/09/14 03:21:28;;;;;;;4.68;2.22;;;12.80;99.90;;;;;;5078585;28;20114;-60
2022/09/14 03:23:54;;;;;;;4.38;2.50;;;12.80;99.90;;;;;;5085536;28;20070;-60
2022/09/14 03:26:22;;;;;;;5.32;2.50;;;12.80;99.90;;;;;;5086843;28;20067;-60
2022/09/14 03:28:53;;;;;;;6.45;2.50;;;12.80;99.90;;;;;;5086458;28;20044;-60
2022/09/14 03:31:19;;;;;;;5.13;2.38;;;12.80;99.90;;;;;;5087191;28;20040;-60
2022/09/14 03:33:45;;;;;;;5.68;2.10;;;12.80;99.90;;;;;;5087828;28;20039;-61
2022/09/14 03:36:15;;;;;;;4.13;2.28;;;12.80;99.90;;;;;;5081075;28;20036;-60
2022/09/14 03:38:45;;;;;;;2.40;2.03;;;12.80;99.90;;;;;;5088947;28;20055;-60
2022/09/14 03:41:12;;;;;;;7.15;2.13;;;12.80;99.90;;;;;;5082305;28;20036;-61
2022/09/14 03:43:38;;;;;;;4.53;2.13;;;12.80;99.90;;;;;;5085147;28;20068;-60
2022/09/14 03:46:10;;;;;;;4.70;1.90;;;12.80;99.90;;;;;;5077502;28;20475;-60
2022/09/14 03:48:36;;;;;;;5.63;1.90;;;12.80;99.90;;;;;;5087650;28;20028;-59
2022/09/14 03:51:04;;;;;;;5.35;2.13;;;12.90;99.90;;;;;;5083459;28;20085;-60
2022/09/14 03:53:30;;;;;;;7.32;2.15;;;12.90;99.90;;;;;;5087335;28;20024;-60
2022/09/14 03:55:56;;;;;;;7.50;2.30;;;12.80;99.90;;;;;;5089252;28;20413;-60
2022/09/14 03:58:22;;;;;;;5.13;1.95;;;12.90;99.90;;;;;;5088293;28;20356;-60
2022/09/14 04:00:48;;;;;;;6.55;2.42;;;12.90;99.90;;;;;;5085701;28;20043;-60
2022/09/14 04:03:13;;;;;;;5.13;1.98;;;12.90;99.90;;;;;;5077796;28;20088;-60
2022/09/14 04:05:39;;;;;;;3.80;2.13;;;13.00;99.90;;;;;;5081905;28;20143;-61
2022/09/14 04:08:05;;;;;;;7.65;2.35;;;13.00;99.90;;;;;;5081978;28;20085;-61
2022/09/14 04:10:31;;;;;;;4.30;2.35;;;13.00;99.90;;;;;;5063347;28;20044;-60
2022/09/14 04:12:57;;;;;;;4.07;2.17;;;13.00;99.90;;;;;;5075124;28;20040;-60
2022/09/14 04:15:23;;;;;;;6.72;2.20;;;13.10;99.90;;;;;;5081805;28;20445;-61
2022/09/14 04:17:50;;;;;;;5.72;1.95;;;13.10;99.90;;;;;;5087920;28;20051;-61
2022/09/14 04:20:17;;;;;;;3.33;1.77;;;13.00;99.90;;;;;;5088686;28;20091;-61
2022/09/14 04:22:44;;;;;;;4.30;2.17;;;13.10;99.90;;;;;;5084517;28;20083;-60
2022/09/14 04:25:10;;;;;;;5.32;1.88;;;13.10;99.90;;;;;;5078733;28;20067;-61
2022/09/14 04:27:36;;;;;;;4.38;2.00;;;13.10;99.90;;;;;;5076669;28;20040;-60
2022/09/14 04:30:03;;;;;;;8.63;2.30;;;13.20;99.90;;;;;;5086759;28;20471;-60
2022/09/14 04:32:28;;;;;;;3.70;2.00;;;13.20;99.90;;;;;;5083339;28;20040;-60
2022/09/14 04:34:54;;;;;;;5.85;1.92;;;13.30;99.90;;;;;;5080627;28;20050;-59
2022/09/14 04:37:19;;;;;;;6.78;2.05;;;13.20;99.90;;;;;;5083778;28;20059;-60
2022/09/14 04:39:45;;;;;;;3.10;1.60;;;13.30;99.90;;;;;;5088833;28;20040;-61
2022/09/14 04:42:11;;;;;;;7.30;1.92;;;13.30;99.90;;;;;;5083995;28;20063;-61
2022/09/14 04:44:36;;;;;;;6.60;1.70;;;13.20;99.90;;;;;;5082036;28;20091;-60
2022/09/14 04:47:02;;;;;;;5.38;2.22;;;13.20;99.90;;;;;;5087380;28;20043;-60
2022/09/14 04:49:27;;;;;;;3.55;1.70;;;13.20;99.90;;;;;;5085700;28;20107;-61
2022/09/14 04:51:53;;;;;;;8.70;2.03;;;13.30;99.90;;;;;;5081614;28;20054;-60
2022/09/14 04:54:19;;;;;;;5.85;2.08;;;13.20;99.90;;;;;;5082914;28;20119;-60
2022/09/14 04:56:45;;;;;;;8.10;2.20;;;13.20;99.90;;;;;;5080149;28;20048;-60
2022/09/14 04:59:11;;;;;;;7.07;2.00;;;13.20;99.90;;;;;;5084804;28;20048;-61
2022/09/14 05:01:42;;;;;;;5.68;2.30;;;13.20;99.90;;;;;;5077985;28;20059;-60
2022/09/14 05:04:08;;;;;;;6.15;2.13;;;13.20;99.90;;;;;;5082232;28;20039;-60
2022/09/14 05:06:37;;;;;;;5.32;1.80;;;13.20;99.90;;;;;;5081797;28;20387;-61
2022/09/14 05:09:05;;;;;;;4.30;2.35;;;13.20;99.90;;;;;;5074116;28;20075;-60
2022/09/14 05:11:33;;;;;;;6.97;2.22;;;13.20;99.90;;;;;;5081920;28;20036;-60
2022/09/14 05:14:00;;;;;;;3.90;2.10;;;13.20;99.90;;;;;;5073906;28;20076;-61
2022/09/14 05:16:31;;;;;;;4.63;2.15;;;13.20;99.90;;;;;;5089583;28;20499;-60
2022/09/14 05:19:02;;;;;;;6.00;2.10;;;13.20;99.90;;;;;;5088230;28;20050;-60
2022/09/14 05:21:30;;;;;;;4.22;2.13;;;13.20;99.90;;;;;;5083231;28;20044;-61
2022/09/14 05:24:11;;;;;;;5.70;1.90;;;13.20;99.90;;;;;;5082417;28;20457;-60
2022/09/14 05:26:37;;;;;;;3.88;1.65;;;13.30;99.90;;;;;;5077120;28;20049;-60
2022/09/14 05:29:03;;;;;;;5.22;2.03;;;13.30;99.90;;;;;;5089512;28;20540;-60
2022/09/14 05:31:30;;;;;;;4.28;2.25;;;13.20;99.90;;;;;;5084705;28;20460;-61
2022/09/14 05:33:57;;;;;;;6.15;2.22;;;13.20;99.90;;;;;;5083542;28;20028;-60
2022/09/14 05:36:23;;;;;;;5.43;2.33;;;13.30;99.90;;;;;;5083586;28;20046;-61
2022/09/14 05:38:48;;;;;;;3.80;1.88;;;13.20;99.90;;;;;;5086673;28;20040;-61
2022/09/14 05:41:15;;;;;;;6.20;2.00;;;13.30;99.90;;;;;;5080663;28;20131;-60
2022/09/14 05:43:41;;;;;;;5.00;2.05;;;13.30;99.90;;;;;;5084703;28;20363;-59
2022/09/14 05:46:12;;;;;;;5.53;1.95;;;13.40;99.90;;;;;;5081735;28;20570;-60
2022/09/14 05:48:39;;;;;;;3.67;2.20;;;13.40;99.90;;;;;;5083283;28;20056;-61
2022/09/14 05:51:12;;;;;;;6.25;2.22;;;13.50;99.90;;;;;;5083321;28;20038;-61
2022/09/14 05:53:38;;;;;;;4.35;1.95;;;13.60;99.90;;;;;;5083236;28;20047;-61
2022/09/14 05:56:12;;;;;;;6.63;2.33;;;13.60;99.90;;;;;;5082227;28;20048;-60
2022/09/14 05:58:39;;;;;;;4.25;1.90;;;13.60;99.90;;;;;;5087294;28;20083;-60
2022/09/14 06:01:10;;;;;;;4.10;1.50;;;13.70;99.90;;;;;;5085657;28;20127;-61
2022/09/14 06:03:36;;;;;;;4.10;1.90;;;13.70;99.90;;;;;;5084855;28;20384;-60
2022/09/14 06:06:03;;;;;;;8.23;2.17;;;13.70;99.90;;;;;;5089697;28;20094;-61
2022/09/14 06:08:29;;;;;;;5.65;2.08;;;13.70;99.90;;;;;;5087464;28;20127;-61
2022/09/14 06:10:55;;;;;;;3.83;1.80;;;13.80;99.90;;;;;;5090728;28;20119;-60
2022/09/14 06:13:22;;;;;;;6.82;2.30;;;13.80;99.90;;;;;;5091835;28;20036;-60
2022/09/14 06:15:48;;;;;;;5.40;2.00;;;13.90;99.90;;;;;;5080532;28;20036;-60
2022/09/14 06:18:14;;;;;;;5.35;2.60;;;13.90;99.90;;;;;;5084317;28;20044;-60
2022/09/14 06:20:48;;;;;;;4.82;2.30;;;13.90;99.90;;;;;;5088214;28;20051;-61
2022/09/14 06:23:13;;;;;;;5.22;1.70;;;14.00;99.90;;;;;;5081237;28;21079;-60
2022/09/14 06:25:39;;;;;;;7.47;1.92;;;14.00;99.90;;;;;;5083935;28;20037;-60
2022/09/14 06:28:06;;;;;;;8.45;1.92;;;14.10;99.90;;;;;;5076884;28;20116;-59
2022/09/14 06:30:32;;;;;;;7.38;2.20;;;14.10;99.90;;;;;;5083859;28;20047;-60
2022/09/14 06:32:58;;;;;;;3.90;2.15;;;14.20;99.90;;;;;;5085820;28;20028;-60
2022/09/14 06:35:23;;;;;;;6.30;2.13;;;14.20;99.90;;;;;;5080969;28;20499;-60
2022/09/14 06:37:49;;;;;;;8.27;2.40;;;14.30;99.90;;;;;;5086939;28;20078;-60
2022/09/14 06:40:14;;;;;;;8.63;2.05;;;14.30;99.90;;;;;;5088680;28;20114;-60
2022/09/14 06:42:40;;;;;;;3.15;1.55;;;14.40;99.90;;;;;;5083490;28;20036;-61
2022/09/14 06:45:07;;;;;;;3.67;1.88;;;14.40;99.90;;;;;;5080022;28;20177;-60
2022/09/14 06:47:33;;;;;;;7.38;1.73;;;14.50;99.90;;;;;;5090765;28;20036;-60
2022/09/14 06:49:58;;;;;;;5.25;2.05;;;14.60;99.90;;;;;;5093925;28;20480;-60
2022/09/14 06:52:24;;;;;;;7.60;2.53;;;14.70;99.90;;;;;;5091320;28;20131;-60
2022/09/14 06:54:49;;;;;;;2.92;1.63;;;14.80;99.90;;;;;;5089716;28;20058;-61
2022/09/14 06:57:15;;;;;;;7.20;1.80;;;14.90;99.90;;;;;;5091457;28;20163;-60
2022/09/14 06:59:40;;;;;;;3.42;1.90;;;15.00;99.90;;;;;;5093067;28;20060;-61
2022/09/14 07:02:08;;;;;;;4.20;1.70;;;15.00;99.90;;;;;;5090795;28;20056;-61
2022/09/14 07:04:35;;;;;;;5.75;1.85;;;15.20;99.90;;;;;;5087912;28;20055;-60
2022/09/14 07:07:01;;;;;;;3.83;2.10;;;15.30;99.90;;;;;;5090319;28;20407;-60
2022/09/14 07:09:26;;;;;;;4.20;1.90;;;15.40;99.90;;;;;;5093269;28;20036;-60
2022/09/14 07:11:53;;;;;;;4.00;1.65;;;15.50;99.90;;;;;;5091104;28;20040;-60
2022/09/14 07:14:19;;;;;;;6.18;1.80;;;15.50;99.90;;;;;;5091531;28;20032;-61
2022/09/14 07:16:44;;;;;;;3.13;1.23;;;15.60;99.90;;;;;;5092529;28;20491;-60
2022/09/14 07:19:12;;;;;;;2.90;1.50;;;15.70;99.90;;;;;;5093424;28;20048;-61
2022/09/14 07:21:38;;;;;;;3.92;1.38;;;15.70;99.90;;;;;;5085636;28;20040;-61
2022/09/14 07:24:04;;;;;;;7.88;1.52;;;15.80;99.90;;;;;;5086416;28;20028;-61
2022/09/14 07:26:38;;;;;;;5.10;1.52;;;15.90;99.90;;;;;;5087959;28;20032;-61
2022/09/14 07:29:05;;;;;;;6.35;1.42;;;16.00;99.90;;;;;;5080863;28;20037;-60
2022/09/14 07:31:41;;;;;;;5.93;1.80;;;16.10;99.90;;;;;;5073717;28;20041;-62
2022/09/14 07:34:06;;;;;;;2.63;1.50;;;16.20;99.90;;;;;;5072983;28;20442;-60
2022/09/14 07:36:35;;;;;;;5.55;1.75;;;16.20;99.90;;;;;;5084582;28;20036;-61
2022/09/14 07:39:02;;;;;;;3.25;1.83;;;16.30;99.90;;;;;;5089766;28;20039;-62
2022/09/14 07:41:29;;;;;;;4.85;1.90;;;16.40;99.90;;;;;;5080874;28;20043;-61
2022/09/14 07:43:59;;;;;;;5.35;1.30;;;16.40;99.90;;;;;;5086017;28;20483;-61
2022/09/14 07:46:29;;;;;;;4.18;1.27;;;16.50;99.90;;;;;;5089324;28;20047;-61
2022/09/14 07:48:56;;;;;;;2.90;1.38;;;16.60;99.90;;;;;;5088858;28;20093;-61
2022/09/14 07:51:23;;;;;;;4.30;1.60;;;16.60;99.90;;;;;;5089365;28;20123;-62
2022/09/14 07:53:49;;;;;;;4.65;1.40;;;16.70;99.90;;;;;;5078172;28;20177;-61
2022/09/14 07:56:15;;;;;;;4.22;1.30;;;16.70;99.90;;;;;;5082391;28;20546;-61
2022/09/14 07:58:41;;;;;;;5.28;1.35;;;16.70;99.90;;;;;;5089593;28;20088;-62
2022/09/14 08:01:10;;;;;;;5.10;1.25;;;16.80;99.90;;;;;;5083166;28;20039;-62
2022/09/14 08:03:38;;;;;;;4.72;1.30;;;16.90;99.90;;;;;;5087732;28;20044;-61
2022/09/14 08:06:07;;;;;;;2.97;0.82;;;17.00;99.90;;;;;;5081712;28;20048;-62
2022/09/14 08:08:35;;;;;;;4.25;1.48;;;17.10;99.90;;;;;;5058000;28;20114;-62
2022/09/14 08:11:04;;;;;;;4.32;1.15;;;17.20;99.90;;;;;;5059058;28;20086;-62
2022/09/14 08:13:30;;;;;;;6.82;1.20;;;17.40;99.90;;;;;;5087971;28;20073;-62
2022/09/14 08:15:59;;;;;;;2.65;0.98;;;17.50;99.90;;;;;;5090238;28;20040;-61
2022/09/14 08:18:25;;;;;;;2.60;0.80;;;17.60;99.90;;;;;;5077706;28;20047;-62
2022/09/14 08:20:52;;;;;;;2.58;0.80;;;17.60;99.90;;;;;;5089384;28;20053;-61
2022/09/14 08:23:17;;;;;;;4.72;0.80;;;17.70;99.90;;;;;;5086503;28;20436;-62
2022/09/14 08:25:43;;;;;;;2.20;0.68;;;17.70;99.90;;;;;;5090635;28;20044;-62
2022/09/14 08:28:08;;;;;;;2.10;0.57;;;17.70;99.90;;;;;;5092000;28;20063;-61
2022/09/14 08:30:34;;;;;;;3.50;0.80;;;17.80;99.90;;;;;;5086834;28;20383;-62
2022/09/14 08:32:59;;;;;;;3.90;0.55;;;17.70;99.90;;;;;;5088351;28;20036;-61
2022/09/14 08:35:25;;;;;;;4.05;0.80;;;17.80;99.90;;;;;;5091061;28;20051;-62
2022/09/14 08:37:50;;;;;;;1.92;0.55;;;17.80;99.90;;;;;;5089108;28;20043;-61
2022/09/14 08:40:16;;;;;;;3.97;0.65;;;18.00;99.90;;;;;;5086702;28;20040;-62
2022/09/14 08:42:43;;;;;;;4.22;0.60;;;18.20;99.90;;;;;;5090335;28;20043;-61
2022/09/14 08:45:12;;;;;;;3.10;0.90;;;18.40;99.90;;;;;;5088624;28;20047;-62
2022/09/14 08:47:40;;;;;;;5.05;0.85;;;18.60;99.90;;;;;;5092410;28;20415;-62
2022/09/14 08:50:13;;;;;;;6.38;0.65;;;18.70;99.90;;;;;;5089033;28;20463;-62
2022/09/14 08:52:47;;;;;;;4.88;0.60;;;18.70;99.90;;;;;;5086212;28;20419;-62
2022/09/14 08:55:34;;;;;;;4.05;0.60;;;18.90;99.90;;;;;;5089580;28;20484;-62
2022/09/14 08:58:05;;;;;;;2.72;0.60;;;19.10;99.90;;;;;;5073815;28;20047;-61
2022/09/14 09:00:43;;;;;;;5.25;0.80;;;19.30;99.90;;;;;;5089034;28;20478;-62
2022/09/14 09:03:17;;;;;;;3.40;0.68;;;19.40;99.90;;;;;;5082889;28;20507;-62
2022/09/14 09:05:52;;;;;;;2.38;0.75;;;19.40;99.90;;;;;;5086217;28;20044;-63
2022/09/14 09:08:26;;;;;;;5.35;0.95;;;19.60;99.90;;;;;;5088253;28;20778;-62
2022/09/14 09:10:53;;;;;;;7.57;0.90;;;19.70;99.90;;;;;;5083668;28;20084;-62
2022/09/14 09:13:27;;;;;;;5.13;1.10;;;19.80;99.90;;;;;;5081316;28;20028;-62
2022/09/14 09:16:00;;;;;;;4.63;0.77;;;19.80;99.90;;;;;;5075011;28;20517;-62
2022/09/14 09:18:34;;;;;;;5.30;0.98;;;19.80;99.90;;;;;;5072679;28;20040;-62
2022/09/14 09:21:11;;;;;;;5.97;0.77;;;19.80;99.90;;;;;;5076416;28;20109;-62
2022/09/14 09:23:37;;;;;;;8.13;1.25;;;19.70;99.90;;;;;;5085185;28;20478;-62
2022/09/14 09:26:26;;;;;;;9.18;1.33;;;19.60;99.90;;;;;;5079787;28;20051;-62
2022/09/14 09:29:00;;;;;;;4.63;1.08;;;19.60;99.90;;;;;;5074784;28;20545;-62
2022/09/14 09:31:36;;;;;;;4.68;1.00;;;19.70;99.90;;;;;;5091078;28;20062;-62
2022/09/14 09:34:02;;;;;;;6.40;1.23;;;19.60;99.80;;;;;;5087259;28;20062;-61
2022/09/14 09:36:39;;;;;;;6.10;1.10;;;19.60;99.90;;;;;;5081240;28;20586;-62
2022/09/14 09:39:05;;;;;;;6.55;0.98;;;19.70;99.10;;;;;;5075203;28;20032;-61
2022/09/14 09:41:59;;;;;;;6.03;1.00;;;19.70;99.60;;;;;;5074286;28;20037;-62
2022/09/14 09:44:25;;;;;;;3.58;0.70;;;19.90;98.40;;;;;;5075882;28;20507;-62
2022/09/14 09:47:00;;;;;;;6.30;0.98;;;19.80;98.80;;;;;;5077677;28;20081;-62
2022/09/14 09:49:35;;;;;;;6.07;1.17;;;19.80;98.00;;;;;;5076517;28;20032;-62
2022/09/14 09:52:16;;;;;;;7.28;1.23;;;19.80;98.20;;;;;;5077769;28;20036;-62
2022/09/14 09:54:49;;;;;;;5.32;0.88;;;19.80;97.80;;;;;;5077604;28;20048;-63
2022/09/14 09:57:33;;;;;;;4.32;0.90;;;19.70;97.80;;;;;;5077444;28;20048;-61
2022/09/14 10:00:17;;;;;;;3.95;1.13;;;20.00;97.80;;;;;;5078434;28;20048;-62
2022/09/14 10:02:42;;;;;;;6.13;0.90;;;20.10;96.60;;;;;;5078122;28;20051;-62
2022/09/14 10:05:08;;;;;;;6.40;1.23;;;20.20;96.80;;;;;;5083883;28;20625;-63
2022/09/14 10:07:38;;;;;;;6.22;1.00;;;20.20;95.80;;;;;;5088941;28;20036;-62
2022/09/14 10:10:13;;;;;;;6.07;1.10;;;20.30;95.30;;;;;;5088212;28;20036;-62
2022/09/14 10:12:49;;;;;;;4.43;1.10;;;20.40;94.80;;;;;;5081184;28;20029;-62
2022/09/14 10:15:30;;;;;;;2.58;0.80;;;20.70;94.80;;;;;;5088810;28;20073;-62
2022/09/14 10:17:59;;;;;;;2.83;0.70;;;20.90;94.20;;;;;;5091745;28;20071;-62
2022/09/14 10:20:25;;;;;;;6.05;0.98;;;21.10;94.10;;;;;;5090640;28;20071;-62
2022/09/14 10:22:51;;;;;;;5.40;0.80;;;21.00;93.40;;;;;;5089453;28;20379;-62
2022/09/14 10:25:16;;;;;;;4.93;0.90;;;21.10;93.00;;;;;;5088901;28;20410;-62
2022/09/14 10:27:47;;;;;;;3.47;0.80;;;21.10;92.80;;;;;;5082834;28;20093;-62
2022/09/14 10:30:25;;;;;;;3.42;0.70;;;21.10;92.60;;;;;;5085368;28;20036;-63
2022/09/14 10:33:04;;;;;;;3.30;0.85;;;21.20;92.80;;;;;;5089234;28;20036;-62
2022/09/14 10:35:55;;;;;;;3.00;1.10;;;21.20;93.30;;;;;;5086040;28;20062;-63
2022/09/14 10:38:39;;;;;;;7.00;1.33;;;21.10;93.00;;;;;;5088619;28;20566;-63
2022/09/14 10:41:14;;;;;;;4.97;0.80;;;21.00;93.10;;;;;;5091898;28;20047;-63
2022/09/14 10:43:42;;;;;;;3.60;0.70;;;21.10;92.80;;;;;;5090996;28;20093;-62
2022/09/14 10:46:12;;;;;;;3.58;0.70;;;21.00;91.80;;;;;;5095234;28;20048;-62
2022/09/14 10:48:50;;;;;;;4.75;0.75;;;21.00;90.30;;;;;;5088308;28;20028;-63
2022/09/14 10:51:36;;;;;;;6.63;1.08;;;21.00;90.70;;;;;;5088762;28;20044;-62
2022/09/14 10:54:20;;;;;;;4.45;0.77;;;21.00;91.10;;;;;;5091575;28;20044;-62
2022/09/14 10:56:58;;;;;;;5.43;1.17;;;20.90;91.60;;;;;;5091014;28;20036;-62
2022/09/14 10:59:28;;;;;;;4.95;0.88;;;20.80;91.10;;;;;;5089992;28;20036;-62
2022/09/14 11:02:03;;;;;;;6.53;1.05;;;20.70;91.10;;;;;;5093530;28;20135;-62
2022/09/14 11:04:59;;;;;;;3.75;0.95;;;20.80;91.20;;;;;;5079137;28;20391;-62
2022/09/14 11:07:54;;;;;;;8.00;1.45;;;20.90;91.00;;;;;;5084926;28;20342;-63
2022/09/14 11:10:33;;;;;;;3.88;0.90;;;21.10;91.40;;;;;;5090569;28;20056;-63
2022/09/14 11:13:36;;;;;;;7.22;1.15;;;21.20;82.50;;;;;;5091803;28;20039;-62
2022/09/14 11:16:39;;;;;;;3.95;1.08;;;21.30;85.20;;;;;;5092089;28;20079;-62
2022/09/14 11:19:17;;;;;;;4.75;0.73;;;21.30;86.00;;;;;;5089851;28;20067;-63
2022/09/14 11:21:48;;;;;;;5.53;1.20;;;21.30;81.10;;;;;;5089411;28;20048;-62
2022/09/14 11:24:27;;;;;;;4.65;1.00;;;21.40;85.10;;;;;;5093601;28;20113;-62
2022/09/14 11:27:03;;;;;;;4.75;0.90;;;21.60;84.80;;;;;;5091644;28;20043;-62
2022/09/14 11:29:51;;;;;;;4.93;1.17;;;21.70;83.30;;;;;;5092345;28;20040;-62
2022/09/14 11:32:22;;;;;;;3.47;0.63;;;21.80;81.20;;;;;;5091171;28;20663;-62
2022/09/14 11:35:12;;;;;;;3.47;0.85;;;21.80;78.20;;;;;;5093093;28;20402;-62
2022/09/14 11:37:59;;;;;;;6.18;1.00;;;22.00;79.70;;;;;;5092365;28;20555;-62
2022/09/14 11:40:33;;;;;;;4.50;0.70;;;22.50;79.30;;;;;;5089440;28;20042;-63
2022/09/14 11:43:13;;;;;;;2.88;0.70;;;22.70;77.00;;;;;;5092589;28;20036;-62
2022/09/14 11:45:51;;;;;;;3.05;0.80;;;22.70;76.50;;;;;;5091407;28;20048;-63
2022/09/14 11:48:34;;;;;;;5.40;0.80;;;22.90;76.40;;;;;;5092000;28;20051;-63
2022/09/14 11:51:19;;;;;;;4.15;0.90;;;23.00;75.80;;;;;;5092223;28;20044;-62
2022/09/14 11:53:45;;;;;;;8.02;1.20;;;23.00;74.70;;;;;;5090358;28;20040;-63
2022/09/14 11:56:29;;;;;;;5.45;0.80;;;23.00;74.20;;;;;;5086440;28;20043;-62
2022/09/14 11:59:02;;;;;;;5.22;0.88;;;23.10;72.10;;;;;;5089336;28;20036;-62
2022/09/14 12:01:38;;;;;;;3.83;1.00;;;23.20;73.70;;;;;;5093732;28;20036;-63
2022/09/14 12:04:13;;;;;;;5.28;0.90;;;23.30;73.70;;;;;;5090537;28;20395;-63
2022/09/14 12:06:38;;;;;;;3.10;0.60;;;23.30;73.10;;;;;;5090949;28;20119;-62
2022/09/14 12:09:16;;;;;;;4.93;1.10;;;23.10;73.70;;;;;;5089144;28;20138;-63
2022/09/14 12:11:43;;;;;;;3.58;1.10;;;23.10;74.20;;;;;;5089549;28;20376;-62
2022/09/14 12:14:29;;;;;;;3.83;1.00;;;22.90;75.90;;;;;;5090678;28;20106;-63
2022/09/14 12:17:19;;;;;;;5.45;0.90;;;22.80;77.10;;;;;;5083285;28;20043;-63
2022/09/14 12:19:47;;;;;;;4.70;0.70;;;22.60;77.20;;;;;;5090592;28;20047;-63
2022/09/14 12:22:34;;;;;;;2.88;0.70;;;22.40;78.60;;;;;;5092220;28;20047;-63
2022/09/14 12:25:16;;;;;;;3.60;0.82;;;22.40;78.50;;;;;;5089771;28;20071;-63
2022/09/14 12:27:43;;;;;;;5.50;0.98;;;22.30;80.50;;;;;;5090421;28;20036;-63
2022/09/14 12:30:42;;;;;;;4.90;1.08;;;22.20;80.90;;;;;;5070324;28;20428;-63
2022/09/14 12:33:33;;;;;;;6.53;0.95;;;22.20;81.10;;;;;;5053545;28;20076;-63
2022/09/14 12:36:28;;;;;;;3.28;0.90;;;22.30;80.30;;;;;;5090460;28;20062;-63
2022/09/14 12:38:56;;;;;;;6.00;0.88;;;22.40;80.70;;;;;;5088287;28;20126;-63
2022/09/14 12:41:21;;;;;;;5.15;0.80;;;22.40;81.30;;;;;;5089304;28;20036;-63
2022/09/14 12:43:50;;;;;;;4.70;0.90;;;22.40;81.40;;;;;;5090576;28;20048;-63
2022/09/14 12:46:18;;;;;;;3.83;0.77;;;22.40;80.80;;;;;;5087942;28;20562;-63
2022/09/14 12:48:47;;;;;;;5.13;0.85;;;22.40;80.60;;;;;;5092082;28;20048;-63
2022/09/14 12:51:28;;;;;;;4.10;0.95;;;22.40;80.70;;;;;;5091191;28;20036;-63
2022/09/14 12:54:07;;;;;;;5.00;1.08;;;22.40;81.50;;;;;;5089553;28;20043;-63
2022/09/14 12:56:57;;;;;;;3.88;1.15;;;22.40;81.50;;;;;;5090075;28;20388;-63
2022/09/14 12:59:35;;;;;;;4.70;1.05;;;22.60;81.10;;;;;;5092269;28;20032;-63
2022/09/14 13:02:21;;;;;;;3.42;0.90;;;22.70;81.10;;;;;;5091060;28;20051;-62
2022/09/14 13:04:52;;;;;;;3.20;0.60;;;22.50;79.40;;;;;;5088735;28;20513;-63
2022/09/14 13:07:20;;;;;;;4.47;1.00;;;22.40;79.60;;;;;;5088112;28;20044;-62
2022/09/14 13:09:54;;;;;;;4.60;0.90;;;22.20;81.40;;;;;;5075364;28;20086;-63
2022/09/14 13:12:33;;;;;;;2.78;1.00;;;22.10;80.60;;;;;;5091287;28;20448;-62